Summit, NY (12175)

1:22 AM EDT on November 01, 2014 (GMT -0400)
Van Dyke Ave | Change Station
CLOSE
Current Station
Personal Weather Station
Location: Stamford, NY
Elevation: 1940 ft
Nearby Weather Stations

Elev 1940 ft 42.42 °N, 74.62 °W | Updated 11 seconds ago

Overcast
Overcast
39.3 °F
Feels Like 39 °F
N
3.0
Wind Variable Wind from ENE
Gusts 3.0 mph

Today
High -- | Low -- °F
--% Chance of Precip.
Yesterday
High -- | Low -- °F
Precip. -- in
7:31 AM 5:51 PM
Waxing Gibbous, 63% visible
Pressure 29.97 in
Visibility 10.0 miles
Clouds Overcast 4100 ft
Windchill 39 °F
Dew Point 36 °F
Humidity 89%
Rainfall 0.00 in
Snow Depth Not available.
UV 0 out of 12
Pollen .10 out of 12
Air Quality Not available.
Flu Activity Not available.
METAR KALB 010451Z 03007KT 10SM OVC041 07/01 A2997 RMK AO2 RAE29 SLP149 VCSH NW-N P0000 T00720011 401171006

More Conditions Fewer Conditions

Pressure 29.97 in
Visibility 10.0 miles
Clouds Overcast 4100 ft
Windchill 39 °F
Dew Point 36 °F
Humidity 89%
Rainfall 0.00 in
Snow Depth Not available.
UV 0 out of 12
Pollen .10 out of 12
Air Quality Not available.
Flu Activity Not available.
METAR KALB 010451Z 03007KT 10SM OVC041 07/01 A2997 RMK AO2 RAE29 SLP149 VCSH NW-N P0000 T00720011 401171006

More Conditions Fewer Conditions

10-Day Weather Forecast

Almanac

Astronomy

Nov. 01, 2014 Rise Set
Actual Time
Civil Twilight
Nautical Twilight
Astronomical Twilight
Moon
Length of Visible Light
Length of Day
Tomorrow will be .
, % of the Moon is Illuminated

Today's Extremes

State Highs State Lows

Community

WunderPhotos

Upload Photos

1,766,858 photos uploaded!

WunderBlogs® & News

Nearby

Air Quality

  Air Quality AQ Index Pollutant
Not available.

Snow Depth

Station Depth Elevation

Earthquake Activity

City Distance Mag. Time & Date
Minimum magnitude displayed is 2.5.

Coastal Water Temperatures

Place Temperature

Nearby Weather Stations